createdAt,value
2018-09-06T00:00:40.972Z,0.00
2018-09-06T00:01:40.944Z,0.00
2018-09-06T00:02:40.922Z,0.00
2018-09-06T00:03:40.896Z,0.00
2018-09-06T00:04:40.874Z,0.00
2018-09-06T00:05:40.846Z,0.00
2018-09-06T00:06:40.816Z,0.00
2018-09-06T00:07:40.797Z,0.00
2018-09-06T00:08:40.774Z,0.00
2018-09-06T00:09:40.751Z,0.00
2018-09-06T00:10:40.721Z,0.00
2018-09-06T00:11:40.702Z,0.00
2018-09-06T00:12:40.677Z,0.00
2018-09-06T00:13:40.651Z,0.00
2018-09-06T00:14:40.628Z,0.00
2018-09-06T00:15:40.600Z,0.00
2018-09-06T00:16:40.578Z,0.00
2018-09-06T00:17:40.557Z,0.00
2018-09-06T00:18:40.527Z,0.00
2018-09-06T00:19:40.514Z,0.00
2018-09-06T00:20:40.485Z,0.00
2018-09-06T00:21:40.452Z,0.00
2018-09-06T00:22:40.430Z,0.00
2018-09-06T00:23:40.406Z,0.00
2018-09-06T00:24:40.385Z,0.00
2018-09-06T00:25:40.358Z,0.00
2018-09-06T00:26:40.338Z,0.00
2018-09-06T00:27:40.309Z,0.00
2018-09-06T00:28:40.286Z,0.00
2018-09-06T00:29:40.264Z,0.00
2018-09-06T00:30:40.235Z,0.00
2018-09-06T00:31:40.216Z,0.00
2018-09-06T00:32:40.194Z,0.00
2018-09-06T00:33:40.161Z,0.00
2018-09-06T00:34:40.146Z,0.00
2018-09-06T00:35:40.120Z,0.00
2018-09-06T00:36:40.089Z,0.00
2018-09-06T00:37:40.068Z,0.00
2018-09-06T00:38:40.038Z,0.00
2018-09-06T00:39:40.025Z,0.00
2018-09-06T00:40:40.001Z,0.00
2018-09-06T00:41:39.969Z,0.00
2018-09-06T00:42:39.951Z,0.00
2018-09-06T00:43:39.920Z,0.00
2018-09-06T00:44:39.896Z,0.00
2018-09-06T00:45:39.879Z,0.00
2018-09-06T00:46:39.849Z,0.00
2018-09-06T00:47:39.829Z,0.00
2018-09-06T00:48:39.797Z,0.00
2018-09-06T00:49:39.786Z,0.00
2018-09-06T00:50:39.754Z,0.00
2018-09-06T00:51:39.737Z,0.00
2018-09-06T00:52:39.707Z,0.00
2018-09-06T00:53:39.681Z,0.00
2018-09-06T00:54:39.654Z,0.00
2018-09-06T00:55:39.630Z,0.00
2018-09-06T00:56:39.608Z,0.00
2018-09-06T00:57:39.583Z,0.00
2018-09-06T00:58:39.554Z,0.00
2018-09-06T00:59:39.538Z,0.00
2018-09-06T01:00:39.511Z,0.00
2018-09-06T01:01:39.490Z,0.00
2018-09-06T01:02:39.465Z,0.00
2018-09-06T01:03:39.431Z,0.00
2018-09-06T01:04:39.413Z,0.00
2018-09-06T01:05:39.390Z,0.00
2018-09-06T01:06:39.366Z,0.00
2018-09-06T01:07:39.334Z,0.00
2018-09-06T01:08:39.320Z,0.00
2018-09-06T01:09:39.288Z,0.00
2018-09-06T01:10:39.261Z,0.00
2018-09-06T01:11:39.249Z,0.00
2018-09-06T01:12:39.215Z,0.00
2018-09-06T01:13:39.196Z,0.00
2018-09-06T01:14:39.172Z,0.00
2018-09-06T01:15:39.145Z,0.00
2018-09-06T01:16:39.121Z,0.00
2018-09-06T01:17:39.095Z,0.00
2018-09-06T01:18:39.067Z,0.00
2018-09-06T01:19:39.051Z,0.00
2018-09-06T01:20:39.025Z,0.00
2018-09-06T01:21:38.998Z,0.00
2018-09-06T01:22:38.980Z,0.00
2018-09-06T01:23:38.952Z,0.00
2018-09-06T01:24:38.929Z,0.00
2018-09-06T01:25:38.902Z,0.00
2018-09-06T01:26:38.874Z,0.00
2018-09-06T01:27:38.853Z,0.00
2018-09-06T01:28:38.826Z,0.00
2018-09-06T01:29:38.814Z,0.00
2018-09-06T01:30:38.775Z,0.00
2018-09-06T01:31:38.760Z,0.00
2018-09-06T01:32:38.730Z,0.00
2018-09-06T01:33:38.708Z,0.00
2018-09-06T01:34:38.680Z,0.00
2018-09-06T01:35:38.655Z,0.00
2018-09-06T01:36:38.638Z,0.00
2018-09-06T01:37:38.606Z,0.00
2018-09-06T01:38:38.646Z,0.00
2018-09-06T01:39:38.556Z,0.00
2018-09-06T01:40:38.539Z,0.00
2018-09-06T01:41:38.511Z,0.00
2018-09-06T01:42:38.488Z,0.00
2018-09-06T01:43:38.461Z,0.00
2018-09-06T01:44:38.444Z,0.00
2018-09-06T01:45:38.419Z,0.00
2018-09-06T01:46:38.394Z,0.00
2018-09-06T01:47:38.363Z,0.00
2018-09-06T01:48:38.344Z,0.00
2018-09-06T01:49:38.317Z,0.00
2018-09-06T01:50:38.297Z,0.00
2018-09-06T01:51:38.275Z,0.00
2018-09-06T01:52:38.242Z,0.00
2018-09-06T01:53:38.231Z,0.00
2018-09-06T01:54:38.193Z,0.00
2018-09-06T01:55:38.175Z,0.00
2018-09-06T01:56:38.145Z,0.00
2018-09-06T01:57:38.125Z,0.00
2018-09-06T01:58:38.099Z,0.00
2018-09-06T01:59:38.075Z,0.00
2018-09-06T02:00:38.045Z,0.00
2018-09-06T02:01:38.026Z,0.00
2018-09-06T02:02:38.000Z,0.00
2018-09-06T02:03:37.974Z,0.00
2018-09-06T02:04:37.949Z,0.00
2018-09-06T02:05:37.974Z,0.00
2018-09-06T02:06:37.909Z,0.00
2018-09-06T02:07:37.874Z,0.00
2018-09-06T02:08:37.861Z,0.00
2018-09-06T02:09:37.830Z,0.00
2018-09-06T02:10:37.812Z,0.00
2018-09-06T02:11:37.778Z,0.00
2018-09-06T02:12:37.759Z,0.00
2018-09-06T02:13:37.732Z,0.00
2018-09-06T02:14:37.710Z,0.00
2018-09-06T02:15:37.685Z,0.00
2018-09-06T02:16:37.664Z,0.00
2018-09-06T02:17:37.689Z,0.00
2018-09-06T02:18:37.610Z,0.00
2018-09-06T02:19:37.587Z,0.00
2018-09-06T02:20:37.563Z,0.00
2018-09-06T02:21:37.536Z,0.00
2018-09-06T02:22:37.514Z,0.00
2018-09-06T02:23:37.487Z,0.00
2018-09-06T02:24:37.465Z,0.00
2018-09-06T02:25:37.447Z,0.00
2018-09-06T02:26:37.417Z,0.00
2018-09-06T02:27:37.391Z,0.00
2018-09-06T02:28:37.371Z,0.00
2018-09-06T02:29:37.344Z,0.00
2018-09-06T02:30:37.324Z,0.00
2018-09-06T02:31:37.293Z,0.00
2018-09-06T02:32:37.269Z,0.00
2018-09-06T02:33:37.248Z,0.00
2018-09-06T02:34:37.219Z,0.00
2018-09-06T02:35:37.197Z,0.00
2018-09-06T02:36:37.168Z,0.00
2018-09-06T02:37:37.153Z,0.00
2018-09-06T02:38:37.120Z,0.00
2018-09-06T02:39:37.102Z,0.00
2018-09-06T02:40:37.070Z,0.00
2018-09-06T02:41:37.055Z,0.00
2018-09-06T02:42:37.021Z,0.00
2018-09-06T02:43:37.017Z,0.00
2018-09-06T02:44:36.975Z,0.00
2018-09-06T02:45:36.953Z,0.00
2018-09-06T02:46:36.925Z,0.00
2018-09-06T02:47:36.904Z,0.00
2018-09-06T02:48:36.880Z,0.00
2018-09-06T02:49:36.852Z,0.00
2018-09-06T02:50:36.825Z,0.00
2018-09-06T02:51:36.813Z,0.00
2018-09-06T02:52:36.784Z,0.00
2018-09-06T02:53:36.752Z,0.00
2018-09-06T02:54:36.730Z,0.00
2018-09-06T02:55:36.707Z,0.00
2018-09-06T02:56:36.688Z,0.00
2018-09-06T02:57:36.652Z,0.00
2018-09-06T02:58:36.629Z,0.00
2018-09-06T02:59:36.610Z,0.00
2018-09-06T03:00:36.586Z,0.00
2018-09-06T03:01:36.558Z,0.00
2018-09-06T03:02:36.532Z,0.00
2018-09-06T03:03:36.514Z,0.00
2018-09-06T03:04:36.489Z,0.00
2018-09-06T03:05:36.459Z,0.00
2018-09-06T03:06:36.435Z,0.00
2018-09-06T03:07:36.416Z,0.00
2018-09-06T03:08:36.384Z,0.00
2018-09-06T03:09:36.368Z,0.00
2018-09-06T03:10:36.332Z,0.00
2018-09-06T03:11:36.320Z,0.00
2018-09-06T03:12:36.290Z,0.00
2018-09-06T03:13:36.262Z,0.00
2018-09-06T03:14:36.238Z,0.00
2018-09-06T03:15:36.219Z,0.00
2018-09-06T03:16:36.194Z,0.00
2018-09-06T03:17:36.161Z,0.00
2018-09-06T03:18:36.139Z,0.00
2018-09-06T03:19:36.118Z,0.00
2018-09-06T03:20:36.090Z,0.00
2018-09-06T03:21:36.072Z,0.00
2018-09-06T03:22:36.035Z,0.00
2018-09-06T03:23:36.024Z,0.00
2018-09-06T03:24:35.996Z,0.00
2018-09-06T03:25:35.964Z,0.00
2018-09-06T03:26:35.946Z,0.00
2018-09-06T03:27:35.918Z,0.00
2018-09-06T03:28:35.892Z,0.00
2018-09-06T03:29:35.873Z,0.00
2018-09-06T03:30:35.852Z,0.00
2018-09-06T03:31:35.823Z,0.00
2018-09-06T03:32:35.810Z,0.00
2018-09-06T03:33:35.777Z,0.00
2018-09-06T03:34:35.742Z,0.00
2018-09-06T03:35:35.728Z,0.00
2018-09-06T03:36:35.707Z,0.00
2018-09-06T03:37:35.669Z,0.00
2018-09-06T03:38:35.654Z,0.00
2018-09-06T03:39:35.618Z,0.00
2018-09-06T03:40:35.598Z,0.00
2018-09-06T03:41:35.572Z,0.00
2018-09-06T03:42:35.550Z,0.00
2018-09-06T03:43:35.523Z,0.00
2018-09-06T03:44:35.499Z,0.00
2018-09-06T03:45:35.479Z,0.00
2018-09-06T03:46:35.444Z,0.00
2018-09-06T03:47:35.429Z,0.00
2018-09-06T03:48:35.399Z,0.00
2018-09-06T03:49:35.379Z,0.00
2018-09-06T03:50:35.347Z,0.00
2018-09-06T03:51:35.328Z,0.00
2018-09-06T03:52:35.300Z,0.00
2018-09-06T03:53:35.281Z,0.00
2018-09-06T03:54:35.246Z,0.00
2018-09-06T03:55:35.231Z,0.00
2018-09-06T03:56:35.202Z,0.00
2018-09-06T03:57:35.178Z,0.00
2018-09-06T03:58:35.150Z,0.00
2018-09-06T03:59:35.129Z,0.00
2018-09-06T04:00:35.107Z,0.00
2018-09-06T04:01:35.074Z,0.00
2018-09-06T04:02:35.051Z,0.00
2018-09-06T04:03:35.030Z,0.00
2018-09-06T04:04:35.004Z,0.00
2018-09-06T04:05:34.979Z,0.00
2018-09-06T04:06:34.953Z,0.00
2018-09-06T04:07:34.931Z,0.00
2018-09-06T04:08:34.901Z,0.00
2018-09-06T04:09:34.881Z,0.00
2018-09-06T04:10:34.858Z,0.00
2018-09-06T04:11:34.825Z,0.00
2018-09-06T04:12:34.808Z,0.00
2018-09-06T04:13:34.779Z,0.00
2018-09-06T04:14:34.759Z,0.00
2018-09-06T04:15:34.729Z,0.00
2018-09-06T04:16:34.707Z,0.00
2018-09-06T04:17:34.679Z,0.00
2018-09-06T04:18:34.699Z,0.00
2018-09-06T04:19:34.634Z,0.00
2018-09-06T04:20:34.610Z,0.00
2018-09-06T04:21:34.580Z,0.00
2018-09-06T04:22:34.567Z,0.00
2018-09-06T04:23:34.533Z,0.00
2018-09-06T04:24:34.526Z,0.00
2018-09-06T04:25:34.511Z,0.00
2018-09-06T04:26:34.588Z,0.00
2018-09-06T04:27:34.482Z,0.00
2018-09-06T04:28:34.442Z,0.00
2018-09-06T04:29:34.473Z,0.00
2018-09-06T04:30:34.465Z,0.00
2018-09-06T04:31:34.419Z,0.00
2018-09-06T04:32:34.341Z,0.00
2018-09-06T04:33:34.285Z,0.00
2018-09-06T04:34:34.256Z,0.00
2018-09-06T04:35:34.275Z,0.00
2018-09-06T04:36:34.204Z,0.00
2018-09-06T04:37:34.188Z,0.00
2018-09-06T04:38:34.154Z,0.00
2018-09-06T04:39:34.138Z,0.00
2018-09-06T04:40:34.107Z,0.00
2018-09-06T04:41:34.083Z,0.00
2018-09-06T04:42:34.059Z,0.00
2018-09-06T04:43:34.065Z,0.00
2018-09-06T04:44:34.005Z,0.00
2018-09-06T04:45:33.990Z,0.00
2018-09-06T04:46:33.956Z,0.00
2018-09-06T04:47:33.933Z,0.00
2018-09-06T04:48:33.913Z,0.00
2018-09-06T04:49:33.886Z,0.00
2018-09-06T04:50:33.866Z,0.00
2018-09-06T04:51:33.834Z,0.00
2018-09-06T04:52:33.818Z,0.00
2018-09-06T04:53:33.783Z,0.00
2018-09-06T04:54:33.767Z,0.00
2018-09-06T04:55:33.737Z,0.00
2018-09-06T04:56:33.710Z,0.00
2018-09-06T04:57:33.699Z,0.00
2018-09-06T04:58:33.666Z,0.00
2018-09-06T04:59:33.639Z,0.00
2018-09-06T05:00:33.618Z,0.00
2018-09-06T05:01:33.585Z,0.00
2018-09-06T05:02:33.559Z,0.00
2018-09-06T05:03:33.530Z,0.00
2018-09-06T05:04:33.508Z,0.00
2018-09-06T05:05:33.487Z,0.00
2018-09-06T05:06:33.465Z,0.00
2018-09-06T05:07:33.432Z,0.00
2018-09-06T05:08:33.406Z,0.00
2018-09-06T05:09:33.390Z,0.00
2018-09-06T05:10:33.361Z,0.00
2018-09-06T05:11:33.336Z,0.00
2018-09-06T05:12:33.307Z,0.00
2018-09-06T05:13:33.282Z,0.00
2018-09-06T05:14:33.258Z,0.00
2018-09-06T05:15:33.236Z,0.00
2018-09-06T05:16:33.212Z,0.00
2018-09-06T05:17:33.191Z,0.00
2018-09-06T05:18:33.156Z,0.00
2018-09-06T05:19:33.134Z,0.00
2018-09-06T05:20:33.112Z,0.00
2018-09-06T05:21:33.083Z,0.00
2018-09-06T05:22:33.061Z,0.00
2018-09-06T05:23:33.033Z,0.00
2018-09-06T05:24:33.016Z,0.00
2018-09-06T05:25:32.983Z,0.00
2018-09-06T05:26:32.964Z,5.63
2018-09-06T05:27:32.930Z,5.63
2018-09-06T05:28:32.913Z,5.63
2018-09-06T05:29:32.894Z,5.63
2018-09-06T05:30:32.870Z,5.63
2018-09-06T05:31:32.839Z,5.63
2018-09-06T05:32:32.816Z,5.63
2018-09-06T05:33:32.782Z,5.63
2018-09-06T05:34:32.760Z,5.63
2018-09-06T05:35:32.735Z,5.63
2018-09-06T05:36:32.754Z,5.63
2018-09-06T05:37:32.692Z,5.63
2018-09-06T05:38:32.664Z,5.63
2018-09-06T05:39:32.636Z,5.63
2018-09-06T05:40:32.605Z,5.63
2018-09-06T05:41:32.590Z,5.63
2018-09-06T05:42:32.565Z,5.63
2018-09-06T05:43:32.541Z,5.63
2018-09-06T05:44:32.513Z,5.63
2018-09-06T05:45:32.495Z,5.63
2018-09-06T05:46:32.465Z,5.63
2018-09-06T05:47:32.571Z,5.63
2018-09-06T05:48:32.413Z,5.63
2018-09-06T05:49:32.385Z,5.63
2018-09-06T05:50:32.370Z,5.63
2018-09-06T05:51:32.339Z,5.63
2018-09-06T05:52:32.312Z,5.63
2018-09-06T05:53:32.314Z,5.63
2018-09-06T05:54:32.260Z,5.63
2018-09-06T05:55:32.233Z,5.63
2018-09-06T05:56:32.214Z,11.25
2018-09-06T05:57:32.179Z,11.25
2018-09-06T05:58:32.162Z,11.25
2018-09-06T05:59:32.143Z,11.25
2018-09-06T06:00:32.114Z,11.25
2018-09-06T06:01:32.088Z,11.25
2018-09-06T06:02:32.061Z,11.25
2018-09-06T06:03:32.032Z,11.25
2018-09-06T06:04:32.013Z,11.25
2018-09-06T06:05:31.979Z,16.88
2018-09-06T06:06:31.961Z,16.88
2018-09-06T06:07:31.938Z,22.50
2018-09-06T06:08:31.907Z,22.50
2018-09-06T06:09:31.884Z,22.50
2018-09-06T06:10:31.864Z,22.50
2018-09-06T06:11:31.831Z,22.50
2018-09-06T06:12:31.804Z,22.50
2018-09-06T06:13:31.792Z,22.50
2018-09-06T06:14:31.758Z,22.50
2018-09-06T06:15:31.730Z,22.50
2018-09-06T06:16:31.713Z,22.50
2018-09-06T06:17:31.683Z,22.50
2018-09-06T06:18:31.662Z,22.50
2018-09-06T06:19:31.632Z,28.13
2018-09-06T06:20:31.611Z,28.13
2018-09-06T06:21:31.588Z,28.13
2018-09-06T06:22:31.553Z,28.13
2018-09-06T06:23:31.539Z,28.13
2018-09-06T06:24:31.508Z,28.13
2018-09-06T06:25:31.480Z,28.13
2018-09-06T06:26:31.474Z,28.13
2018-09-06T06:27:31.428Z,28.13
2018-09-06T06:28:31.419Z,28.13
2018-09-06T06:29:31.379Z,28.13
2018-09-06T06:30:31.363Z,28.13
2018-09-06T06:31:31.329Z,28.13
2018-09-06T06:32:31.312Z,28.13
2018-09-06T06:33:31.278Z,28.13
2018-09-06T06:34:31.316Z,28.13
2018-09-06T06:35:31.235Z,28.13
2018-09-06T06:36:31.207Z,33.75
2018-09-06T06:37:31.182Z,33.75
2018-09-06T06:38:31.154Z,33.75
2018-09-06T06:39:31.131Z,33.75
2018-09-06T06:40:31.110Z,33.75
2018-09-06T06:41:31.081Z,28.13
2018-09-06T06:42:31.058Z,28.13
2018-09-06T06:43:31.031Z,28.13
2018-09-06T06:44:31.006Z,28.13
2018-09-06T06:45:30.987Z,33.75
2018-09-06T06:46:30.950Z,33.75
2018-09-06T06:47:30.935Z,33.75
2018-09-06T06:48:30.904Z,33.75
2018-09-06T06:49:30.878Z,33.75
2018-09-06T06:50:30.900Z,33.75
2018-09-06T06:51:30.835Z,33.75
2018-09-06T06:52:30.820Z,33.75
2018-09-06T06:53:30.775Z,28.13
2018-09-06T06:54:30.760Z,28.13
2018-09-06T06:55:30.731Z,22.50
2018-09-06T06:56:30.706Z,22.50
2018-09-06T06:57:30.680Z,16.88
2018-09-06T06:58:30.662Z,16.88
2018-09-06T06:59:30.625Z,11.25
2018-09-06T07:00:30.605Z,11.25
2018-09-06T07:01:30.582Z,11.25
2018-09-06T07:02:30.555Z,11.25
2018-09-06T07:03:30.536Z,16.88
2018-09-06T07:04:30.517Z,16.88
2018-09-06T07:05:30.480Z,16.88
2018-09-06T07:06:30.448Z,11.25
2018-09-06T07:07:30.432Z,11.25
2018-09-06T07:08:30.398Z,11.25
2018-09-06T07:09:30.381Z,11.25
2018-09-06T07:10:30.349Z,11.25
2018-09-06T07:11:30.331Z,16.88
2018-09-06T07:12:30.301Z,22.50
2018-09-06T07:13:30.288Z,22.50
2018-09-06T07:14:30.254Z,22.50
2018-09-06T07:15:30.228Z,22.50
2018-09-06T07:16:30.205Z,22.50
2018-09-06T07:17:30.178Z,22.50
2018-09-06T07:18:30.208Z,22.50
2018-09-06T07:19:30.159Z,22.50
2018-09-06T07:20:30.116Z,22.50
2018-09-06T07:21:30.083Z,22.50
2018-09-06T07:22:30.060Z,22.50
2018-09-06T07:23:30.046Z,22.50
2018-09-06T07:24:29.999Z,22.50
2018-09-06T07:25:29.980Z,22.50
2018-09-06T07:26:29.950Z,22.50
2018-09-06T07:27:29.928Z,22.50
2018-09-06T07:28:29.909Z,22.50
2018-09-06T07:29:29.872Z,22.50
2018-09-06T07:30:29.993Z,22.50
2018-09-06T07:31:29.830Z,22.50
2018-09-06T07:32:29.814Z,28.13
2018-09-06T07:33:29.785Z,28.13
2018-09-06T07:34:29.752Z,28.13
2018-09-06T07:35:29.727Z,28.13
2018-09-06T07:36:29.707Z,28.13
2018-09-06T07:37:29.672Z,28.13
2018-09-06T07:38:29.650Z,28.13
2018-09-06T07:39:29.631Z,33.75
2018-09-06T07:40:29.603Z,33.75
2018-09-06T07:41:29.638Z,33.75
2018-09-06T07:42:29.551Z,39.38
2018-09-06T07:43:29.534Z,39.38
2018-09-06T07:44:29.496Z,39.38
2018-09-06T07:45:29.482Z,39.38
2018-09-06T07:46:29.448Z,39.38
2018-09-06T07:47:29.436Z,39.38
2018-09-06T07:48:29.404Z,33.75
2018-09-06T07:49:29.379Z,33.75
2018-09-06T07:50:29.351Z,28.13
2018-09-06T07:51:29.339Z,22.50
2018-09-06T07:52:29.304Z,22.50
2018-09-06T07:53:29.279Z,22.50
2018-09-06T07:54:29.250Z,22.50
2018-09-06T07:55:29.232Z,28.13
2018-09-06T07:56:29.208Z,28.13
2018-09-06T07:57:29.176Z,33.75
2018-09-06T07:58:29.153Z,33.75
2018-09-06T07:59:29.148Z,28.13
2018-09-06T08:00:29.110Z,28.13
2018-09-06T08:01:29.080Z,22.50
2018-09-06T08:02:29.055Z,28.13
2018-09-06T08:03:29.034Z,28.13
2018-09-06T08:04:29.001Z,33.75
2018-09-06T08:05:28.985Z,33.75
2018-09-06T08:06:28.955Z,33.75
2018-09-06T08:07:28.934Z,33.75
2018-09-06T08:08:28.903Z,33.75
2018-09-06T08:09:28.909Z,33.75
2018-09-06T08:10:28.853Z,33.75
2018-09-06T08:11:28.834Z,33.75
2018-09-06T08:12:28.800Z,33.75
2018-09-06T08:13:28.797Z,33.75
2018-09-06T08:14:28.752Z,28.13
2018-09-06T08:15:28.743Z,28.13
2018-09-06T08:16:28.705Z,28.13
2018-09-06T08:17:28.688Z,28.13
2018-09-06T08:18:28.656Z,28.13
2018-09-06T08:19:28.638Z,28.13
2018-09-06T08:20:28.613Z,28.13
2018-09-06T08:21:28.584Z,28.13
2018-09-06T08:22:28.562Z,28.13
2018-09-06T08:23:28.540Z,28.13
2018-09-06T08:24:28.515Z,28.13
2018-09-06T08:25:28.493Z,28.13
2018-09-06T08:26:28.453Z,28.13
2018-09-06T08:27:28.444Z,28.13
2018-09-06T08:28:28.409Z,28.13
2018-09-06T08:29:28.388Z,28.13
2018-09-06T08:30:28.366Z,33.75
2018-09-06T08:31:28.465Z,33.75
2018-09-06T08:32:28.311Z,33.75
2018-09-06T08:33:28.287Z,33.75
2018-09-06T08:34:28.259Z,33.75
2018-09-06T08:35:28.241Z,33.75
2018-09-06T08:36:28.207Z,39.38
2018-09-06T08:37:28.191Z,39.38
2018-09-06T08:38:28.160Z,39.38
2018-09-06T08:39:28.141Z,39.38
2018-09-06T08:40:28.123Z,45.00
2018-09-06T08:41:28.091Z,45.00
2018-09-06T08:42:28.061Z,45.00
2018-09-06T08:43:28.038Z,45.00
2018-09-06T08:44:28.015Z,45.00
2018-09-06T08:45:28.083Z,45.00
2018-09-06T08:46:27.959Z,45.00
2018-09-06T08:47:27.960Z,45.00
2018-09-06T08:48:27.915Z,45.00
2018-09-06T08:49:27.888Z,45.00
2018-09-06T08:50:27.861Z,50.63
2018-09-06T08:51:27.846Z,50.63
2018-09-06T08:52:27.844Z,50.63
2018-09-06T08:53:27.786Z,50.63
2018-09-06T08:54:27.768Z,50.63
2018-09-06T08:55:27.740Z,56.25
2018-09-06T08:56:27.717Z,56.25
2018-09-06T08:57:27.690Z,61.88
2018-09-06T08:58:27.744Z,61.88
2018-09-06T08:59:27.640Z,67.50
2018-09-06T09:00:27.623Z,67.50
2018-09-06T09:01:27.589Z,73.13
2018-09-06T09:02:27.678Z,73.13
2018-09-06T09:03:27.542Z,73.13
2018-09-06T09:04:27.523Z,73.13
2018-09-06T09:05:27.495Z,73.13
2018-09-06T09:06:27.475Z,67.50
2018-09-06T09:07:27.447Z,67.50
2018-09-06T09:08:27.521Z,61.88
2018-09-06T09:09:27.401Z,61.88
2018-09-06T09:10:27.370Z,56.25
2018-09-06T09:11:27.351Z,50.63
2018-09-06T09:12:27.417Z,50.63
2018-09-06T09:13:27.322Z,50.63
2018-09-06T09:14:27.271Z,50.63
2018-09-06T09:15:27.248Z,50.63
2018-09-06T09:16:27.254Z,50.63
2018-09-06T09:17:27.200Z,50.63
2018-09-06T09:18:27.196Z,50.63
2018-09-06T09:19:27.150Z,56.25
2018-09-06T09:20:27.123Z,56.25
2018-09-06T09:21:27.145Z,50.63
2018-09-06T09:22:27.168Z,50.63
2018-09-06T09:23:27.054Z,50.63
2018-09-06T09:24:27.050Z,50.63
2018-09-06T09:25:27.049Z,56.25
2018-09-06T09:26:26.987Z,56.25
2018-09-06T09:27:26.950Z,61.88
2018-09-06T09:28:26.933Z,67.50
2018-09-06T09:29:26.903Z,67.50
2018-09-06T09:30:26.900Z,67.50
2018-09-06T09:31:26.848Z,67.50
2018-09-06T09:32:26.843Z,67.50
2018-09-06T09:33:26.798Z,67.50
2018-09-06T09:34:26.779Z,67.50
2018-09-06T09:35:26.751Z,78.75
2018-09-06T09:36:26.725Z,78.75
2018-09-06T09:37:26.717Z,84.38
2018-09-06T09:38:26.681Z,84.38
2018-09-06T09:39:26.655Z,84.38
2018-09-06T09:40:26.629Z,84.38
2018-09-06T09:41:26.619Z,84.38
2018-09-06T09:42:26.575Z,84.38
2018-09-06T09:43:26.630Z,78.75
2018-09-06T09:44:26.556Z,78.75
2018-09-06T09:45:26.523Z,78.75
2018-09-06T09:47:58.210Z,84.38
2018-09-06T09:48:58.157Z,84.38
2018-09-06T09:50:51.039Z,84.38
2018-09-06T09:51:51.012Z,78.75
2018-09-06T09:53:43.921Z,78.75
2018-09-06T09:54:43.876Z,78.75
2018-09-06T09:55:43.843Z,73.13
2018-09-06T09:56:43.810Z,78.75
2018-09-06T09:57:43.797Z,78.75
2018-09-06T09:58:43.764Z,78.75
2018-09-06T09:59:43.747Z,78.75
2018-09-06T10:00:43.728Z,84.38
2018-09-06T10:01:43.692Z,78.75
2018-09-06T10:02:43.675Z,78.75
2018-09-06T10:03:43.637Z,78.75
2018-09-06T10:04:43.621Z,73.13
2018-09-06T10:05:43.595Z,78.75
2018-09-06T10:06:43.568Z,78.75
2018-09-06T10:07:43.550Z,78.75
2018-09-06T10:08:43.518Z,84.38
2018-09-06T10:09:43.492Z,84.38
2018-09-06T10:10:43.480Z,84.38
2018-09-06T10:11:43.443Z,84.38
2018-09-06T10:12:43.417Z,84.38
2018-09-06T10:13:43.399Z,84.38
2018-09-06T10:14:43.376Z,84.38
2018-09-06T10:15:43.342Z,90.00
2018-09-06T10:16:43.326Z,90.00
2018-09-06T10:17:43.296Z,95.63
2018-09-06T10:18:43.270Z,95.63
2018-09-06T10:19:43.254Z,95.63
2018-09-06T10:20:43.220Z,95.63
2018-09-06T10:21:43.201Z,95.63
2018-09-06T10:22:43.178Z,101.25
2018-09-06T10:23:43.145Z,101.25
2018-09-06T10:24:43.129Z,106.88
2018-09-06T10:25:43.116Z,106.88
2018-09-06T10:26:43.076Z,112.50
2018-09-06T10:27:43.055Z,112.50
2018-09-06T10:28:43.022Z,112.50
2018-09-06T10:29:43.008Z,112.50
2018-09-06T10:30:42.974Z,118.13
2018-09-06T10:31:42.957Z,118.13
2018-09-06T10:32:42.934Z,118.13
2018-09-06T10:33:42.900Z,123.75
2018-09-06T10:34:42.885Z,129.38
2018-09-06T10:35:42.853Z,129.38
2018-09-06T10:36:42.830Z,123.75
2018-09-06T10:37:42.806Z,123.75
2018-09-06T10:38:42.777Z,129.38
2018-09-06T10:39:42.760Z,118.13
2018-09-06T10:40:42.809Z,118.13
2018-09-06T10:41:42.708Z,123.75
2018-09-06T10:42:42.688Z,118.13
2018-09-06T10:43:42.698Z,112.50
2018-09-06T10:44:42.660Z,95.63
2018-09-06T10:45:42.621Z,73.13
2018-09-06T10:46:42.588Z,61.88
2018-09-06T10:47:42.588Z,61.88
2018-09-06T10:48:42.536Z,73.13
2018-09-06T10:49:42.520Z,78.75
2018-09-06T10:50:42.483Z,78.75
2018-09-06T10:51:42.466Z,73.13
2018-09-06T10:52:42.436Z,67.50
2018-09-06T10:53:42.416Z,67.50
2018-09-06T10:54:42.385Z,67.50
2018-09-06T10:55:42.366Z,56.25
2018-09-06T10:56:42.340Z,45.00
2018-09-06T10:57:42.313Z,45.00
2018-09-06T10:58:42.292Z,50.63
2018-09-06T10:59:42.266Z,56.25
2018-09-06T11:00:42.260Z,56.25
2018-09-06T11:01:42.255Z,50.63
2018-09-06T11:02:42.199Z,50.63
2018-09-06T11:03:42.180Z,50.63
2018-09-06T11:04:42.181Z,50.63
2018-09-06T11:05:42.125Z,50.63
2018-09-06T11:06:42.097Z,50.63
2018-09-06T11:07:42.109Z,50.63
2018-09-06T11:08:42.046Z,56.25
2018-09-06T11:09:42.019Z,56.25
2018-09-06T11:10:41.991Z,56.25
2018-09-06T11:11:41.975Z,56.25
2018-09-06T11:12:41.945Z,61.88
2018-09-06T11:13:41.924Z,56.25
2018-09-06T11:14:41.903Z,45.00
2018-09-06T11:15:41.873Z,45.00
2018-09-06T11:16:41.856Z,50.63
2018-09-06T11:17:41.819Z,56.25
2018-09-06T11:18:41.800Z,56.25
2018-09-06T11:19:41.776Z,50.63
2018-09-06T11:20:41.754Z,56.25
2018-09-06T11:21:41.808Z,56.25
2018-09-06T11:22:41.908Z,50.63
2018-09-06T11:23:41.675Z,56.25
2018-09-06T11:24:41.650Z,67.50
2018-09-06T11:25:41.628Z,73.13
2018-09-06T11:26:41.606Z,73.13
2018-09-06T11:27:41.598Z,73.13
2018-09-06T11:28:41.553Z,73.13
2018-09-06T11:29:41.534Z,67.50
2018-09-06T11:30:41.501Z,67.50
2018-09-06T11:31:41.486Z,67.50
2018-09-06T11:32:41.452Z,67.50
2018-09-06T11:33:41.446Z,61.88
2018-09-06T11:34:41.408Z,61.88
2018-09-06T11:35:41.381Z,67.50
2018-09-06T11:36:41.361Z,78.75
2018-09-06T11:37:41.332Z,78.75
2018-09-06T11:38:41.305Z,90.00
2018-09-06T11:39:41.288Z,90.00
2018-09-06T11:40:41.266Z,95.63
2018-09-06T11:41:41.236Z,95.63
2018-09-06T11:42:41.208Z,95.63
2018-09-06T11:43:41.189Z,95.63
2018-09-06T11:44:41.160Z,95.63
2018-09-06T11:45:41.139Z,95.63
2018-09-06T11:46:41.144Z,95.63
2018-09-06T11:47:41.178Z,101.25
2018-09-06T11:48:41.065Z,101.25
2018-09-06T11:49:41.034Z,101.25
2018-09-06T11:50:41.010Z,101.25
2018-09-06T11:51:41.053Z,101.25
2018-09-06T11:52:40.964Z,101.25
2018-09-06T11:53:40.946Z,101.25
2018-09-06T11:54:40.916Z,106.88
2018-09-06T11:55:40.889Z,101.25
2018-09-06T11:56:40.865Z,106.88
2018-09-06T11:57:40.843Z,118.13
2018-09-06T11:58:40.829Z,118.13
2018-09-06T11:59:40.796Z,123.75
2018-09-06T12:00:40.770Z,135.00
2018-09-06T12:01:40.744Z,146.25
2018-09-06T12:02:40.721Z,157.50
2018-09-06T12:03:40.693Z,168.75
2018-09-06T12:04:40.666Z,180.00
2018-09-06T12:05:40.652Z,191.25
2018-09-06T12:06:40.617Z,202.50
2018-09-06T12:07:40.603Z,213.75
2018-09-06T12:08:40.575Z,213.75
2018-09-06T12:09:40.547Z,213.75
2018-09-06T12:10:40.550Z,208.13
2018-09-06T12:11:40.520Z,196.88
2018-09-06T12:12:40.492Z,191.25
2018-09-06T12:13:40.483Z,202.50
2018-09-06T12:14:40.424Z,225.00
2018-09-06T12:15:40.405Z,219.38
2018-09-06T12:16:40.371Z,202.50
2018-09-06T12:17:40.370Z,196.88
2018-09-06T12:18:40.335Z,202.50
2018-09-06T12:19:40.301Z,219.38
2018-09-06T12:20:40.279Z,241.88
2018-09-06T12:21:40.259Z,253.13
2018-09-06T12:22:40.234Z,253.13
2018-09-06T12:23:40.205Z,270.00
2018-09-06T12:24:40.186Z,270.00
2018-09-06T12:25:40.246Z,281.25
2018-09-06T12:26:40.132Z,281.25
2018-09-06T12:27:40.111Z,298.13
2018-09-06T12:28:40.084Z,303.75
2018-09-06T12:29:40.062Z,315.00
2018-09-06T12:30:40.033Z,303.75
2018-09-06T12:31:40.035Z,292.50
2018-09-06T12:32:39.990Z,258.75
2018-09-06T12:33:39.970Z,241.88
2018-09-06T12:34:39.945Z,247.50
2018-09-06T12:35:39.913Z,219.38
2018-09-06T12:36:39.919Z,208.13
2018-09-06T12:37:39.870Z,208.13
2018-09-06T12:38:39.891Z,213.75
2018-09-06T12:39:39.814Z,174.38
2018-09-06T12:40:39.794Z,157.50
2018-09-06T12:41:39.767Z,163.13
2018-09-06T12:42:39.744Z,157.50
2018-09-06T12:43:39.726Z,123.75
2018-09-06T12:44:39.700Z,140.63
2018-09-06T12:45:39.677Z,151.88
2018-09-06T12:46:39.656Z,135.00
2018-09-06T12:47:39.620Z,123.75
2018-09-06T12:48:39.602Z,129.38
2018-09-06T12:49:39.594Z,118.13
2018-09-06T12:50:39.553Z,129.38
2018-09-06T12:51:39.537Z,118.13
2018-09-06T12:52:39.506Z,123.75
2018-09-06T12:53:39.484Z,135.00
2018-09-06T12:54:39.490Z,157.50
2018-09-06T12:55:39.434Z,185.63
2018-09-06T12:56:39.455Z,196.88
2018-09-06T12:57:39.429Z,196.88
2018-09-06T12:58:39.357Z,196.88
2018-09-06T12:59:39.340Z,180.00
2018-09-06T13:00:39.313Z,191.25
2018-09-06T13:01:39.295Z,202.50
2018-09-06T13:02:39.258Z,191.25
2018-09-06T13:03:39.247Z,185.63